• Join FlightAware (Why Join?)
  • Login
  • US Flag 
Rudolph Flight #1: Arrived! 
10:50PM EST


 

Airport Tracker/Info


-or-


 

Live Flight TrackerFlight Track Log ✈ RPA4901 ✈ 28-Apr-2013 ✈ KDEN - KABQ

Flight Track Log - Related Links

Times and Time Zones

All times are in EDT time to prevent confusion due to time zone crossing. See the RPA4901 flight status page for this flight to view local times or setup timezone preferences in your user account.

Time Position Orientation Groundspeed Altitude Reporting Facility
EDT Latitude Longitude Course Direction KTS MPH feet Rate Location/Type
08:59PM 39.8333 -104.7500 252° West 187 215 6,400  Level Denver TRACON
09:00PM 39.8167 -104.8167 252° West 215 247 7,800 1,680 Climbing Denver TRACON
09:01PM 39.8097 -104.8464 253° West 221 254 8,600 1,560 Climbing Denver Center
09:02PM 39.7447 -104.8708 196° South 254 292 10,100 1,860 Climbing Denver Center
09:03PM 39.6764 -104.8894 192° South 255 293 12,500 2,040 Climbing Denver Center
09:04PM 39.6022 -104.9164 196° South 228 262 14,800 1,800 Climbing Denver Center
09:05PM 39.5350 -104.9356 192° South 229 264 16,600 1,500 Climbing Denver Center
09:06PM 39.4714 -104.9564 194° South 237 273 17,900 1,260 Climbing Denver Center
09:07PM 39.4022 -104.9783 194° South 236 272 19,300 1,260 Climbing Denver Center
09:08PM 39.3367 -104.9983 193° South 240 276 20,500 1,020 Climbing Denver Center
09:09PM 39.2706 -105.0192 194° South 244 281 21,500 960 Climbing Denver Center
09:10PM 39.1981 -105.0442 195° South 250 288 22,600 960 Climbing Denver Center
09:11PM 39.1297 -105.0656 194° South 246 283 23,500 660 Climbing Denver Center
09:12PM 39.0675 -105.1044 206° Southwest 244 281 24,000 480 Climbing Denver Center
09:13PM 38.9964 -105.1472 205° Southwest 276 318 24,600 480 Climbing Denver Center
09:14PM 38.9244 -105.1894 205° Southwest 278 320 25,000 180 Climbing Denver Center
09:15PM 38.8528 -105.2322 205° Southwest 292 336 25,000  Level Denver Center
09:16PM 38.7619 -105.2844 204° Southwest 316 364 25,000  Level Denver Center
09:17PM 38.6817 -105.3314 205° Southwest 330 380 25,000  Level Denver Center
09:18PM 38.6014 -105.3783 205° Southwest 331 381 25,000  Level Denver Center
09:19PM 38.5011 -105.4233 199° South 341 392 25,000  Level Denver Center
09:20PM 38.3961 -105.4569 194° South 348 400 25,000  Level Denver Center
09:21PM 38.3064 -105.4875 195° South 348 400 25,000  Level Denver Center
09:22PM 38.2308 -105.5161 197° South 353 406 25,000  Level Denver Center
09:23PM 38.1089 -105.5558 194° South 354 407 25,000  Level Denver Center
09:24PM 38.0025 -105.5933 196° South 355 409 25,000  Level Denver Center
09:25PM 37.9106 -105.6242 195° South 357 411 25,000  Level Denver Center
09:27PM 37.8194 -105.6556 195° South 354 407 25,000  Level Denver Center
09:28PM 37.6981 -105.6964 195° South 355 409 25,000  Level Denver Center
09:29PM 37.5919 -105.7331 195° South 353 406 25,000  Level Denver Center
09:30PM 37.4956 -105.7669 196° South 348 400 25,000  Level Denver Center
09:31PM 37.3889 -105.8025 195° South 351 404 25,000  Level Denver Center
09:32PM 37.2836 -105.8419 197° South 351 404 25,000  Level Denver Center
09:33PM 37.1997 -105.8850 202° Southwest 344 396 25,000  Level Denver Center
09:34PM 37.0953 -105.9281 198° South 349 402 25,000  Level Denver Center
09:35PM 37.0008 -105.9694 199° South 349 402 25,000  Level Denver Center
09:36PM 36.9286 -106.0019 200° South 347 399 25,000  Level Denver Center
09:37PM 36.8239 -106.0481 199° South 355 409 25,000  Level Denver Center
09:38PM 36.7247 -106.0931 200° South 350 403 25,000  Level Denver Center
09:39PM 36.6317 -106.1333 199° South 353 406 25,000  Level Denver Center
09:40PM 36.5644 -106.1636 200° South 358 412 25,000  Level Albuquerque Center
09:41PM 36.4608 -106.2086 199° South 352 405 25,000  Level Albuquerque Center
09:42PM 36.3714 -106.2486 200° South 355 409 25,000  Level Albuquerque Center
09:43PM 36.2839 -106.2875 200° South 351 404 25,000 -420 Level Albuquerque Center
09:44PM 36.1819 -106.3331 200° South 348 400 24,200 -1,260 Descending Albuquerque Center
09:45PM 36.0956 -106.3692 199° South 351 404 22,500 -1,740 Descending Albuquerque Center
09:46PM 36.0019 -106.4083 199° South 355 409 20,700 -1,740 Descending Albuquerque Center
09:47PM 35.9106 -106.4481 199° South 351 404 19,000 -1,740 Descending Albuquerque Center
09:48PM 35.8211 -106.4869 199° South 344 396 17,200 -1,740 Descending Albuquerque Center
09:49PM 35.7328 -106.5247 199° South 337 388 15,500 -1,680 Descending Albuquerque Center
09:50PM 35.6442 -106.5611 198° South 322 371 14,200 -1,620 Descending Albuquerque Center
09:50PM 35.6067 -106.5789 201° Southwest 316 364 13,400 -1,020 Descending Albuquerque Center
09:51PM 35.5483 -106.6019 198° South 318 366 13,000 -420 Descending Albuquerque Center
09:51PM 35.5228 -106.6111 196° South 317 365 13,000  Level Albuquerque Center
09:52PM 35.4631 -106.6375 200° South 321 369 13,000  Level Albuquerque Center
09:52PM 35.4394 -106.6483 200° South 321 369 13,000  Level Albuquerque Center
09:53PM 35.3800 -106.6747 200° South 319 367 13,000 -720 Level Albuquerque Center
09:53PM 35.3503 -106.6869 199° South 316 364 12,300 -1,980 Descending Albuquerque Center
09:54PM 35.2981 -106.7094 199° South 313 360 11,000 -1,980 Descending Albuquerque Center
09:54PM 35.2703 -106.7181 194° South 301 346 10,300 -1,920 Descending Albuquerque Center
09:55PM 35.2206 -106.7414 201° Southwest 303 349 9,100 -1,260 Descending Albuquerque Center
09:56PM 35.1503 -106.7731 200° South 287 330 8,100 -540 Descending Albuquerque Center
09:58PM 35.0692 -106.7881 189° South 213 245 8,000 -300 Descending Albuquerque Center
09:58PM 35.0358 -106.7614 147° Southeast 241 277 7,600 -780 Descending Albuquerque Center
09:59PM 35.0447 -106.6978 80° East 208 239 6,600 -960 Descending Albuquerque Center
10:00PM 35.0444 -106.6400 90° East 186 214 5,700 -900 Descending Albuquerque Center
10:02PM 35.0402 -106.6092 90° East  Level Estimated
10:09PM 35.0402 -106.6092 90° East  Level Estimated